createdAt,value
2017-12-02T00:01:23.162Z,15.33
2017-12-02T00:03:54.891Z,14.00
2017-12-02T00:06:27.262Z,18.67
2017-12-02T00:08:59.303Z,17.00
2017-12-02T00:11:31.181Z,15.00
2017-12-02T00:14:03.298Z,14.00
2017-12-02T00:16:35.498Z,14.67
2017-12-02T00:19:07.349Z,16.67
2017-12-02T00:21:39.895Z,14.33
2017-12-02T00:24:13.901Z,13.75
2017-12-02T00:26:45.748Z,11.67
2017-12-02T00:29:17.778Z,12.00
2017-12-02T00:31:49.608Z,12.33
2017-12-02T00:34:21.383Z,17.33
2017-12-02T00:36:53.195Z,17.33
2017-12-02T00:39:25.141Z,14.67
2017-12-02T00:41:56.819Z,15.00
2017-12-02T00:44:28.589Z,11.33
2017-12-02T00:47:01.474Z,14.50
2017-12-02T00:49:33.787Z,16.00
2017-12-02T00:52:06.469Z,11.00
2017-12-02T00:54:38.518Z,10.67
2017-12-02T00:57:10.374Z,15.00
2017-12-02T00:59:42.142Z,14.67
2017-12-02T01:02:14.233Z,10.33
2017-12-02T01:04:47.391Z,12.25
2017-12-02T01:07:19.597Z,11.00
2017-12-02T01:09:52.172Z,14.00
2017-12-02T01:12:23.874Z,13.67
2017-12-02T01:14:55.575Z,14.33
2017-12-02T01:17:27.523Z,17.33
2017-12-02T01:19:58.684Z,16.00
2017-12-02T01:22:31.317Z,19.33
2017-12-02T01:25:03.473Z,14.67
2017-12-02T01:27:35.246Z,16.00
2017-12-02T01:30:08.366Z,17.67
2017-12-02T01:32:40.101Z,14.67
2017-12-02T01:35:11.887Z,14.67
2017-12-02T01:37:45.057Z,15.00
2017-12-02T01:40:19.814Z,17.33
2017-12-02T01:42:52.699Z,18.00
2017-12-02T01:45:23.547Z,22.00
2017-12-02T01:47:56.418Z,18.00
2017-12-02T01:50:28.543Z,21.67
2017-12-02T01:53:01.726Z,21.33
2017-12-02T01:55:33.507Z,17.67
2017-12-02T01:58:04.572Z,19.00
2017-12-02T02:00:37.309Z,20.33
2017-12-02T02:03:09.925Z,18.00
2017-12-02T02:05:41.923Z,19.00
2017-12-02T02:08:14.585Z,16.33
2017-12-02T02:10:47.438Z,18.00
2017-12-02T02:13:20.245Z,24.33
2017-12-02T02:15:51.924Z,17.67
2017-12-02T02:18:24.192Z,16.67
2017-12-02T02:20:56.029Z,21.00
2017-12-02T02:23:28.518Z,18.00
2017-12-02T02:26:01.629Z,17.67
2017-12-02T02:28:33.388Z,16.33
2017-12-02T02:31:05.100Z,14.00
2017-12-02T02:33:36.943Z,13.00
2017-12-02T02:36:09.420Z,14.50
2017-12-02T02:38:41.590Z,12.33
2017-12-02T02:41:13.350Z,14.67
2017-12-02T02:43:45.107Z,15.00
2017-12-02T02:46:17.712Z,16.33
2017-12-02T02:48:49.482Z,13.67
2017-12-02T02:51:21.523Z,15.67
2017-12-02T02:53:54.243Z,14.50
2017-12-02T02:56:26.039Z,16.33
2017-12-02T02:58:58.019Z,13.00
2017-12-02T03:01:29.603Z,17.67
2017-12-02T03:04:02.583Z,13.60
2017-12-02T03:06:35.028Z,12.25
2017-12-02T03:09:07.722Z,14.00
2017-12-02T03:11:39.700Z,14.33
2017-12-02T03:14:12.487Z,11.75
2017-12-02T03:16:45.266Z,14.00
2017-12-02T03:19:17.005Z,11.67
2017-12-02T03:21:48.843Z,10.00
2017-12-02T03:24:20.706Z,15.00
2017-12-02T03:26:53.502Z,13.50
2017-12-02T03:29:26.511Z,12.00
2017-12-02T03:31:59.449Z,12.50
2017-12-02T03:34:31.246Z,14.33
2017-12-02T03:37:04.231Z,10.50
2017-12-02T03:39:35.900Z,11.00
2017-12-02T03:42:07.680Z,17.33
2017-12-02T03:44:40.191Z,17.25
2017-12-02T03:47:12.378Z,11.00
2017-12-02T03:49:44.249Z,14.67
2017-12-02T03:52:16.867Z,14.80
2017-12-02T03:54:48.556Z,16.67
2017-12-02T03:57:20.447Z,15.00
2017-12-02T03:59:52.359Z,13.67
2017-12-02T04:02:24.458Z,17.33
2017-12-02T04:04:56.279Z,15.00
2017-12-02T04:07:29.251Z,15.75
2017-12-02T04:10:01.044Z,15.00
2017-12-02T04:12:32.980Z,13.33
2017-12-02T04:15:07.729Z,15.00
2017-12-02T04:17:39.824Z,18.33
2017-12-02T04:20:11.878Z,16.67
2017-12-02T04:22:43.528Z,22.00
2017-12-02T04:25:16.222Z,18.00
2017-12-02T04:27:48.704Z,16.33
2017-12-02T04:30:20.514Z,17.67
2017-12-02T04:32:52.641Z,19.33
2017-12-02T04:35:24.453Z,17.00
2017-12-02T04:37:56.566Z,16.00
2017-12-02T04:40:28.124Z,18.67
2017-12-02T04:43:00.882Z,19.33
2017-12-02T04:45:32.528Z,19.00
2017-12-02T04:48:04.311Z,19.33
2017-12-02T04:50:36.500Z,17.33
2017-12-02T04:53:08.594Z,17.67
2017-12-02T04:55:41.288Z,18.00
2017-12-02T04:58:14.090Z,23.00
2017-12-02T05:00:46.835Z,18.00
2017-12-02T05:03:19.684Z,17.67
2017-12-02T05:05:50.566Z,23.00
2017-12-02T05:08:23.371Z,20.00
2017-12-02T05:10:56.036Z,21.67
2017-12-02T05:13:28.657Z,19.00
2017-12-02T05:16:01.288Z,18.00
2017-12-02T05:18:32.907Z,15.67
2017-12-02T05:21:04.910Z,19.00
2017-12-02T05:23:35.909Z,22.67
2017-12-02T05:26:08.915Z,17.67
2017-12-02T05:28:41.785Z,21.00
2017-12-02T05:31:13.672Z,19.33
2017-12-02T05:33:44.854Z,19.00
2017-12-02T05:36:15.679Z,21.00
2017-12-02T05:38:46.664Z,20.67
2017-12-02T05:41:17.797Z,18.33
2017-12-02T05:43:50.688Z,19.33
2017-12-02T05:46:23.575Z,22.33
2017-12-02T05:48:56.834Z,21.67
2017-12-02T05:51:27.766Z,19.00
2017-12-02T05:54:00.329Z,23.00
2017-12-02T05:56:33.128Z,22.67
2017-12-02T05:59:05.895Z,22.00
2017-12-02T06:01:39.029Z,27.67
2017-12-02T06:04:10.004Z,26.67
2017-12-02T06:06:41.298Z,20.33
2017-12-02T06:09:12.319Z,26.33
2017-12-02T06:11:43.262Z,23.33
2017-12-02T06:14:15.924Z,22.33
2017-12-02T06:16:47.131Z,23.00
2017-12-02T06:19:18.228Z,20.67
2017-12-02T06:21:49.278Z,23.33
2017-12-02T06:24:19.875Z,19.67
2017-12-02T06:26:53.448Z,23.00
2017-12-02T06:29:24.618Z,21.00
2017-12-02T06:31:55.378Z,21.67
2017-12-02T06:34:26.440Z,22.00
2017-12-02T06:36:58.575Z,21.67
2017-12-02T06:39:31.375Z,19.33
2017-12-02T06:42:04.144Z,18.67
2017-12-02T06:44:37.059Z,25.33
2017-12-02T06:47:09.978Z,22.00
2017-12-02T06:49:40.812Z,20.67
2017-12-02T06:52:13.414Z,21.00
2017-12-02T06:54:46.231Z,22.00
2017-12-02T06:57:19.096Z,26.67
2017-12-02T06:59:52.402Z,21.00
2017-12-02T07:02:25.258Z,18.33
2017-12-02T07:04:58.051Z,19.33
2017-12-02T07:07:29.989Z,22.00
2017-12-02T07:10:02.795Z,19.33
2017-12-02T07:12:35.488Z,19.33
2017-12-02T07:15:07.337Z,15.00
2017-12-02T07:17:39.561Z,18.33
2017-12-02T07:20:12.075Z,20.33
2017-12-02T07:22:44.068Z,19.00
2017-12-02T07:25:16.728Z,19.00
2017-12-02T07:27:49.089Z,21.00
2017-12-02T07:30:21.835Z,21.33
2017-12-02T07:32:54.620Z,21.00
2017-12-02T07:35:26.467Z,20.67
2017-12-02T07:37:59.243Z,19.00
2017-12-02T07:40:31.135Z,21.67
2017-12-02T07:43:03.147Z,19.00
2017-12-02T07:45:36.106Z,19.67
2017-12-02T07:48:08.956Z,20.67
2017-12-02T07:50:41.691Z,18.00
2017-12-02T07:53:14.287Z,17.33
2017-12-02T07:55:46.163Z,16.67
2017-12-02T07:58:17.938Z,18.67
2017-12-02T08:00:50.024Z,18.67
2017-12-02T08:03:21.919Z,20.33
2017-12-02T08:05:54.665Z,22.67
2017-12-02T08:08:27.436Z,18.33
2017-12-02T08:10:58.658Z,18.00
2017-12-02T08:13:30.129Z,24.67
2017-12-02T08:16:03.238Z,24.00
2017-12-02T08:18:34.112Z,26.00
2017-12-02T08:21:04.946Z,22.00
2017-12-02T08:23:37.779Z,24.33
2017-12-02T08:26:08.854Z,25.67
2017-12-02T08:28:42.883Z,25.00
2017-12-02T08:31:15.726Z,25.33
2017-12-02T08:33:47.134Z,20.33
2017-12-02T08:36:18.142Z,26.00
2017-12-02T08:38:49.469Z,25.67
2017-12-02T08:41:20.415Z,21.00
2017-12-02T08:43:51.499Z,27.67
2017-12-02T08:46:22.427Z,23.67
2017-12-02T08:48:53.753Z,26.00
2017-12-02T08:51:26.546Z,21.00
2017-12-02T08:53:57.476Z,22.00
2017-12-02T08:56:28.620Z,22.00
2017-12-02T08:59:01.337Z,22.33
2017-12-02T09:01:32.568Z,22.00
2017-12-02T09:04:03.233Z,24.00
2017-12-02T09:06:36.096Z,22.00
2017-12-02T09:09:07.007Z,20.67
2017-12-02T09:11:39.618Z,23.00
2017-12-02T09:14:12.252Z,23.00
2017-12-02T09:16:43.108Z,23.00
2017-12-02T09:19:15.855Z,21.67
2017-12-02T09:21:48.823Z,24.00
2017-12-02T09:24:19.737Z,27.33
2017-12-02T09:26:52.986Z,27.33
2017-12-02T09:29:25.801Z,26.00
2017-12-02T09:31:58.523Z,25.00
2017-12-02T09:34:32.209Z,19.67
2017-12-02T09:37:02.952Z,26.00
2017-12-02T09:39:35.502Z,24.33
2017-12-02T09:42:09.010Z,20.33
2017-12-02T09:44:41.909Z,20.00
2017-12-02T09:47:15.117Z,23.67
2017-12-02T09:49:47.898Z,20.67
2017-12-02T09:52:19.024Z,22.00
2017-12-02T09:54:50.121Z,22.67
2017-12-02T09:57:23.427Z,23.67
2017-12-02T09:59:56.474Z,27.00
2017-12-02T10:02:27.645Z,21.33
2017-12-02T10:05:00.739Z,22.67
2017-12-02T10:07:31.658Z,26.00
2017-12-02T10:10:04.628Z,23.00
2017-12-02T10:12:37.676Z,26.00
2017-12-02T10:15:12.390Z,31.33
2017-12-02T10:17:43.509Z,20.33
2017-12-02T10:20:16.278Z,22.00
2017-12-02T10:22:49.445Z,21.33
2017-12-02T10:25:20.818Z,23.00
2017-12-02T10:27:52.014Z,22.33
2017-12-02T10:30:23.346Z,20.00
2017-12-02T10:32:56.218Z,18.67
2017-12-02T10:35:27.299Z,25.33
2017-12-02T10:37:58.863Z,19.33
2017-12-02T10:40:31.487Z,22.00
2017-12-02T10:43:02.718Z,23.33
2017-12-02T10:45:35.538Z,22.67
2017-12-02T10:48:06.514Z,21.33
2017-12-02T10:50:37.956Z,22.00
2017-12-02T10:53:11.313Z,20.00
2017-12-02T10:55:43.172Z,22.00
2017-12-02T10:58:16.636Z,23.67
2017-12-02T11:00:49.699Z,28.00
2017-12-02T11:03:22.973Z,24.33
2017-12-02T11:05:55.614Z,22.00
2017-12-02T11:08:27.192Z,21.33
2017-12-02T11:10:58.515Z,24.33
2017-12-02T11:13:30.144Z,25.67
2017-12-02T11:16:03.446Z,24.33
2017-12-02T11:18:36.013Z,20.67
2017-12-02T11:21:08.692Z,22.33
2017-12-02T11:23:39.696Z,23.33
2017-12-02T11:26:12.368Z,20.00
2017-12-02T11:28:45.453Z,20.67
2017-12-02T11:31:18.254Z,18.33
2017-12-02T11:33:49.212Z,24.00
2017-12-02T11:36:22.021Z,21.33
2017-12-02T11:38:55.158Z,21.33
2017-12-02T11:41:28.534Z,19.67
2017-12-02T11:44:01.331Z,22.67
2017-12-02T11:46:35.200Z,19.67
2017-12-02T11:49:08.048Z,22.33
2017-12-02T11:51:40.749Z,21.33
2017-12-02T11:54:13.893Z,21.33
2017-12-02T11:56:47.069Z,19.33
2017-12-02T11:59:20.181Z,20.00
2017-12-02T12:01:53.859Z,18.67
2017-12-02T12:04:26.839Z,22.33
2017-12-02T12:07:00.382Z,19.00
2017-12-02T12:09:33.411Z,19.00
2017-12-02T12:12:08.413Z,20.33
2017-12-02T12:14:41.353Z,20.00
2017-12-02T12:17:14.291Z,19.00
2017-12-02T12:19:45.815Z,21.33
2017-12-02T12:22:18.073Z,23.00
2017-12-02T12:24:50.216Z,22.67
2017-12-02T12:27:22.598Z,19.00
2017-12-02T12:29:55.570Z,19.67
2017-12-02T12:32:28.608Z,20.67
2017-12-02T12:34:59.629Z,19.33
2017-12-02T12:37:30.736Z,18.67
2017-12-02T12:40:04.374Z,23.00
2017-12-02T12:42:38.012Z,23.00
2017-12-02T12:45:12.798Z,19.33
2017-12-02T12:47:43.765Z,20.33
2017-12-02T12:50:15.858Z,20.33
2017-12-02T12:52:48.753Z,19.00
2017-12-02T12:55:23.511Z,23.33
2017-12-02T12:57:56.111Z,18.33
2017-12-02T13:00:29.805Z,22.33
2017-12-02T13:03:03.215Z,23.67
2017-12-02T13:05:34.255Z,18.33
2017-12-02T13:08:07.764Z,20.33
2017-12-02T13:10:42.125Z,17.67
2017-12-02T13:13:14.240Z,20.33
2017-12-02T13:15:47.202Z,16.33
2017-12-02T13:18:20.124Z,22.33
2017-12-02T13:20:51.379Z,19.00
2017-12-02T13:23:25.609Z,19.00
2017-12-02T13:25:58.666Z,14.67
2017-12-02T13:28:33.182Z,20.00
2017-12-02T13:31:07.778Z,17.33
2017-12-02T13:33:40.572Z,18.00
2017-12-02T13:36:13.251Z,20.00
2017-12-02T13:38:45.389Z,17.67
2017-12-02T13:41:17.470Z,16.33
2017-12-02T13:43:49.261Z,13.67
2017-12-02T13:46:21.473Z,17.67
2017-12-02T13:48:54.510Z,13.75
2017-12-02T13:51:28.503Z,13.75
2017-12-02T13:54:02.486Z,13.00
2017-12-02T13:56:34.546Z,14.33
2017-12-02T13:59:06.432Z,13.33
2017-12-02T14:01:38.338Z,16.33
2017-12-02T14:04:10.324Z,14.00
2017-12-02T14:06:43.540Z,11.67
2017-12-02T14:09:17.557Z,14.25
2017-12-02T14:11:51.131Z,14.00
2017-12-02T14:16:57.395Z,12.00
2017-12-02T14:19:29.329Z,14.33
2017-12-02T14:22:02.503Z,16.00
2017-12-02T14:24:35.034Z,16.33
2017-12-02T14:27:07.524Z,15.67
2017-12-02T14:29:39.611Z,16.33
2017-12-02T14:32:12.632Z,14.00
2017-12-02T14:34:46.511Z,15.00
2017-12-02T14:37:19.745Z,14.80
2017-12-02T14:39:53.903Z,14.67
2017-12-02T14:42:29.074Z,15.00
2017-12-02T14:45:04.547Z,16.67
2017-12-02T14:47:40.362Z,14.33
2017-12-02T14:50:15.011Z,14.00
2017-12-02T14:52:47.976Z,13.00
2017-12-02T14:55:21.323Z,18.33
2017-12-02T14:57:53.976Z,15.33
2017-12-02T15:00:26.768Z,17.00
2017-12-02T15:02:59.001Z,15.00
2017-12-02T15:05:31.417Z,11.33
2017-12-02T15:08:05.728Z,15.00
2017-12-02T15:10:38.151Z,15.00
2017-12-02T15:13:10.276Z,17.33
2017-12-02T15:15:44.456Z,15.67
2017-12-02T15:18:17.487Z,15.00
2017-12-02T15:20:50.786Z,16.00
2017-12-02T15:23:25.860Z,19.00
2017-12-02T15:25:57.705Z,15.67
2017-12-02T15:28:29.830Z,19.00
2017-12-02T15:31:01.738Z,18.33
2017-12-02T15:33:35.592Z,22.67
2017-12-02T15:36:09.384Z,22.33
2017-12-02T15:38:41.671Z,20.00
2017-12-02T15:41:14.881Z,22.00
2017-12-02T15:43:48.128Z,20.33
2017-12-02T15:46:20.479Z,18.33
2017-12-02T15:48:53.380Z,19.33
2017-12-02T15:51:24.681Z,24.33
2017-12-02T15:53:57.796Z,19.00
2017-12-02T15:56:30.774Z,24.00
2017-12-02T15:59:05.217Z,21.00
2017-12-02T16:01:38.958Z,22.33
2017-12-02T16:04:12.876Z,21.33
2017-12-02T16:06:45.554Z,20.67
2017-12-02T16:09:18.972Z,22.67
2017-12-02T16:11:54.764Z,21.33
2017-12-02T16:14:26.652Z,19.00
2017-12-02T16:17:02.760Z,21.00
2017-12-02T16:19:34.527Z,24.00
2017-12-02T16:22:08.238Z,21.00
2017-12-02T16:24:41.540Z,21.67
2017-12-02T16:27:13.538Z,21.33
2017-12-02T16:29:47.106Z,20.33
2017-12-02T16:32:19.973Z,20.00
2017-12-02T16:34:54.664Z,21.67
2017-12-02T16:37:28.314Z,20.67
2017-12-02T16:39:59.312Z,23.00
2017-12-02T16:42:33.070Z,26.00
2017-12-02T16:45:07.924Z,26.67
2017-12-02T16:47:39.207Z,24.33
2017-12-02T16:50:12.690Z,23.67
2017-12-02T16:52:45.063Z,20.67
2017-12-02T16:55:20.355Z,21.33
2017-12-02T16:57:55.757Z,18.00
2017-12-02T17:00:28.127Z,18.33
2017-12-02T17:03:00.288Z,18.33
2017-12-02T17:05:32.287Z,18.33
2017-12-02T17:08:04.049Z,19.00
2017-12-02T17:10:37.254Z,20.00
2017-12-02T17:13:12.650Z,20.33
2017-12-02T17:15:45.859Z,24.67
2017-12-02T17:18:16.996Z,22.33
2017-12-02T17:20:49.592Z,28.67
2017-12-02T17:23:20.588Z,23.33
2017-12-02T17:25:51.307Z,26.33
2017-12-02T17:28:23.130Z,27.00
2017-12-02T17:30:54.110Z,24.00
2017-12-02T17:33:25.126Z,25.67
2017-12-02T17:35:56.331Z,25.00
2017-12-02T17:38:27.595Z,29.00
2017-12-02T17:40:58.902Z,31.67
2017-12-02T17:43:30.359Z,25.67
2017-12-02T17:46:01.529Z,25.67
2017-12-02T17:48:32.484Z,26.67
2017-12-02T17:51:03.375Z,27.33
2017-12-02T17:53:34.538Z,30.33
2017-12-02T17:56:05.621Z,24.00
2017-12-02T17:58:36.644Z,21.00
2017-12-02T18:01:07.575Z,29.67
2017-12-02T18:03:38.734Z,25.67
2017-12-02T18:06:10.109Z,24.33
2017-12-02T18:08:40.971Z,21.00
2017-12-02T18:11:11.820Z,26.67
2017-12-02T18:13:42.729Z,22.00
2017-12-02T18:16:13.873Z,19.33
2017-12-02T18:18:46.724Z,23.67
2017-12-02T18:21:17.774Z,23.00
2017-12-02T18:23:48.775Z,24.33
2017-12-02T18:26:19.832Z,25.33
2017-12-02T18:28:52.957Z,24.00
2017-12-02T18:31:23.854Z,23.00
2017-12-02T18:33:54.766Z,22.00
2017-12-02T18:36:29.060Z,26.00
2017-12-02T18:39:00.295Z,22.33
2017-12-02T18:41:33.853Z,22.67
2017-12-02T18:44:05.277Z,23.33
2017-12-02T18:46:36.575Z,25.00
2017-12-02T18:49:07.579Z,28.00
2017-12-02T18:51:38.495Z,23.33
2017-12-02T18:54:09.394Z,29.00
2017-12-02T18:56:40.911Z,28.00
2017-12-02T18:59:15.614Z,25.00
2017-12-02T19:01:47.058Z,25.33
2017-12-02T19:04:18.406Z,31.00
2017-12-02T19:06:49.324Z,26.00
2017-12-02T19:09:20.469Z,27.00
2017-12-02T19:11:51.349Z,29.67
2017-12-02T19:14:22.341Z,29.00
2017-12-02T19:16:53.035Z,28.67
2017-12-02T19:19:24.004Z,27.33
2017-12-02T19:21:54.879Z,26.33
2017-12-02T19:24:25.682Z,26.67
2017-12-02T19:26:57.321Z,27.33
2017-12-02T19:29:28.185Z,31.67
2017-12-02T19:31:59.073Z,29.67
2017-12-02T19:34:30.337Z,34.33
2017-12-02T19:37:01.882Z,35.67
2017-12-02T19:39:33.336Z,29.67
2017-12-02T19:42:04.200Z,36.00
2017-12-02T19:44:35.414Z,35.67
2017-12-02T19:47:06.548Z,30.67
2017-12-02T19:49:37.832Z,26.67
2017-12-02T19:52:08.920Z,27.67
2017-12-02T19:54:40.288Z,29.00
2017-12-02T19:57:11.376Z,30.33
2017-12-02T19:59:42.540Z,37.00
2017-12-02T20:02:13.786Z,30.33
2017-12-02T20:04:45.571Z,34.00
2017-12-02T20:07:17.045Z,29.67
2017-12-02T20:09:48.270Z,26.00
2017-12-02T20:12:19.636Z,29.67
2017-12-02T20:14:50.534Z,26.33
2017-12-02T20:17:21.418Z,24.67
2017-12-02T20:19:52.650Z,29.67
2017-12-02T20:22:24.499Z,24.67
2017-12-02T20:24:55.386Z,27.67
2017-12-02T20:27:26.302Z,25.33
2017-12-02T20:29:57.087Z,26.33
2017-12-02T20:32:28.251Z,26.33
2017-12-02T20:34:59.287Z,30.00
2017-12-02T20:37:30.226Z,27.00
2017-12-02T20:40:01.140Z,30.67
2017-12-02T20:42:32.264Z,26.00
2017-12-02T20:45:07.179Z,27.00
2017-12-02T20:47:39.531Z,25.00
2017-12-02T20:50:10.135Z,26.00
2017-12-02T20:52:41.139Z,23.00
2017-12-02T20:55:12.082Z,26.67
2017-12-02T20:57:43.087Z,28.00
2017-12-02T21:00:19.512Z,22.00
2017-12-02T21:02:52.486Z,23.00
2017-12-02T21:05:23.721Z,24.00
2017-12-02T21:07:56.511Z,27.00
2017-12-02T21:10:27.488Z,24.33
2017-12-02T21:12:58.777Z,26.67
2017-12-02T21:15:29.680Z,24.00
2017-12-02T21:18:00.775Z,22.00
2017-12-02T21:20:33.336Z,25.67
2017-12-02T21:23:04.436Z,25.67
2017-12-02T21:25:35.637Z,34.33
2017-12-02T21:28:06.461Z,27.33
2017-12-02T21:30:38.910Z,26.67
2017-12-02T21:33:10.172Z,27.00
2017-12-02T21:35:41.137Z,29.33
2017-12-02T21:38:11.988Z,32.00
2017-12-02T21:40:43.143Z,31.67
2017-12-02T21:43:14.205Z,32.00
2017-12-02T21:45:45.734Z,27.67
2017-12-02T21:48:16.537Z,27.00
2017-12-02T21:50:47.419Z,25.67
2017-12-02T21:53:18.569Z,27.33
2017-12-02T21:55:49.514Z,28.33
2017-12-02T21:58:20.714Z,27.33
2017-12-02T22:00:51.621Z,31.00
2017-12-02T22:03:22.501Z,26.00
2017-12-02T22:05:53.774Z,29.00
2017-12-02T22:08:24.788Z,31.00
2017-12-02T22:10:55.704Z,25.00
2017-12-02T22:13:27.012Z,26.67
2017-12-02T22:15:58.140Z,28.67
2017-12-02T22:18:29.840Z,26.33
2017-12-02T22:21:00.893Z,32.67
2017-12-02T22:23:31.914Z,27.33
2017-12-02T22:26:04.899Z,27.33
2017-12-02T22:28:35.796Z,27.67
2017-12-02T22:31:07.250Z,29.00
2017-12-02T22:33:38.460Z,30.33
2017-12-02T22:36:13.903Z,26.00
2017-12-02T22:38:45.405Z,25.33
2017-12-02T22:41:16.459Z,24.67
2017-12-02T22:43:47.976Z,28.33
2017-12-02T22:46:19.043Z,28.33
2017-12-02T22:48:50.229Z,24.33
2017-12-02T22:51:21.392Z,24.00
2017-12-02T22:53:52.564Z,23.00
2017-12-02T22:56:23.401Z,25.33
2017-12-02T22:58:54.379Z,24.33
2017-12-02T23:01:25.289Z,25.33
2017-12-02T23:03:56.509Z,25.33
2017-12-02T23:06:27.705Z,23.00
2017-12-02T23:08:58.398Z,28.33
2017-12-02T23:11:32.735Z,31.67
2017-12-02T23:14:04.587Z,27.67
2017-12-02T23:16:35.487Z,25.33
2017-12-02T23:19:06.608Z,28.67
2017-12-02T23:21:37.587Z,28.33
2017-12-02T23:24:08.605Z,24.67
2017-12-02T23:26:39.432Z,27.33
2017-12-02T23:29:10.511Z,28.67
2017-12-02T23:31:41.784Z,26.67
2017-12-02T23:34:12.943Z,30.33
2017-12-02T23:36:43.747Z,29.67
2017-12-02T23:39:14.625Z,23.67
2017-12-02T23:41:45.524Z,26.00
2017-12-02T23:44:16.940Z,29.00
2017-12-02T23:46:47.843Z,25.33
2017-12-02T23:49:18.836Z,26.33
2017-12-02T23:51:49.644Z,28.00
2017-12-02T23:54:20.756Z,29.00
2017-12-02T23:56:51.927Z,29.33
2017-12-02T23:59:23.107Z,26.00
